Terminal Aerodrome Forecast
Issued by NWS

Home | Current Version | Previous Version | Text Only | Print | Product List | Glossary On
Versions: 1 2 3 4 5 6 7 8 9 10 11 12 13 14 15 16 17 18
888
FTUS46 KSEW 261908 AAA
TAFBLI
TAF AMD
KBLI 261908Z 2619/2718 03014G22KT P6SM SCT040 BKN070
     FM270300 02012KT P6SM SCT040 SCT070
     FM271700 VRB04KT P6SM VCSH BKN040=

USA.gov is the U.S. government's official web portal to all federal, state and local government web resources and services.